Time;durP1;ratioP1;P1;durP2;ratioP2;P2;SDS_P1;SDS_P2;PMS_P1;PMS_P2;Temp;Humidity;BMP_temperature;BMP_pressure;BME280_temperature;BME280_humidity;BME280_pressure;Samples;Min_cycle;Max_cycle;Signal;HPM_P1;HPM_P2
2021/05/19 00:00:39;;;;;;;0.93;0.40;;;;;;;10.43;71.81;99026.28;4983396;28;20231;-79
2021/05/19 00:03:06;;;;;;;0.80;0.37;;;;;;;10.39;72.42;99030.47;4968114;28;20233;-78
2021/05/19 00:05:33;;;;;;;0.57;0.40;;;;;;;10.24;72.85;99019.41;4984320;28;20227;-78
2021/05/19 00:07:59;;;;;;;0.50;0.40;;;;;;;10.24;72.86;99025.56;4967360;28;20227;-79
2021/05/19 00:10:27;;;;;;;0.37;0.37;;;;;;;10.15;74.15;99029.59;4963883;28;20237;-79
2021/05/19 00:12:53;;;;;;;1.33;0.40;;;;;;;10.15;74.19;99035.81;4997619;28;20223;-79
2021/05/19 00:15:20;;;;;;;0.57;0.40;;;;;;;10.15;74.46;99032.28;4969535;28;20227;-79
2021/05/19 00:17:47;;;;;;;0.50;0.40;;;;;;;9.99;74.82;99015.03;4954022;28;20232;-79
2021/05/19 00:20:15;;;;;;;0.40;0.40;;;;;;;10.04;75.16;99027.72;4947444;28;20231;-79
2021/05/19 00:22:45;;;;;;;1.17;0.40;;;;;;;10.01;75.13;99042.38;4963075;28;20231;-80
2021/05/19 00:25:12;;;;;;;0.37;0.20;;;;;;;10.03;75.01;99044.84;4967730;28;20231;-79
2021/05/19 00:27:39;;;;;;;0.37;0.37;;;;;;;9.98;75.06;99044.72;4971666;28;20243;-79
2021/05/19 00:30:07;;;;;;;0.50;0.50;;;;;;;10.00;75.12;99046.09;4947005;28;20259;-79
2021/05/19 00:32:33;;;;;;;0.40;0.40;;;;;;;10.00;75.21;99045.28;4958819;28;20286;-78
2021/05/19 00:35:00;;;;;;;0.30;0.30;;;;;;;9.99;75.39;99035.63;4968253;28;20901;-80
2021/05/19 00:37:27;;;;;;;1.97;0.50;;;;;;;9.99;75.67;99040.97;5000593;28;20235;-78
2021/05/19 00:39:54;;;;;;;1.23;0.30;;;;;;;10.00;75.73;99040.75;4967983;28;20310;-78
2021/05/19 00:42:21;;;;;;;0.40;0.40;;;;;;;10.03;76.26;99032.25;4974268;28;20259;-78
2021/05/19 00:44:50;;;;;;;1.37;0.40;;;;;;;10.00;75.90;99027.38;4963905;28;20231;-79
2021/05/19 00:47:50;;;;;;;0.77;0.47;;;;;;;10.01;76.45;99041.56;4963736;28;20232;-79
2021/05/19 00:50:26;;;;;;;0.70;0.30;;;;;;;9.95;76.60;99029.91;4916467;28;20319;-79
2021/05/19 00:52:53;;;;;;;0.40;0.40;;;;;;;9.93;77.11;99033.88;4947513;28;20227;-79
2021/05/19 00:55:20;;;;;;;1.17;0.50;;;;;;;9.86;76.88;99025.13;4963833;28;20268;-80
2021/05/19 00:57:49;;;;;;;1.43;0.50;;;;;;;9.71;77.59;99010.31;4956424;28;20332;-79
2021/05/19 01:00:19;;;;;;;0.50;0.43;;;;;;;9.84;77.73;99027.22;4982831;28;20240;-80
2021/05/19 01:02:52;;;;;;;0.93;0.40;;;;;;;9.77;77.56;99019.28;4974910;28;20675;-78
2021/05/19 01:05:49;;;;;;;0.67;0.40;;;;;;;9.70;78.38;99013.25;4983816;28;20262;-78
2021/05/19 01:11:09;;;;;;;1.83;0.50;;;;;;;9.61;78.65;99020.75;5020743;28;20230;-79
2021/05/19 01:13:40;;;;;;;0.40;0.40;;;;;;;9.57;79.16;99022.25;4990015;28;20241;-79
2021/05/19 01:16:07;;;;;;;0.70;0.40;;;;;;;9.53;79.50;99018.41;4982690;28;20239;-79
2021/05/19 01:18:35;;;;;;;0.40;0.40;;;;;;;9.48;79.51;99020.94;4996702;28;20235;-79
2021/05/19 01:21:02;;;;;;;1.87;0.40;;;;;;;9.45;79.88;99007.22;5021639;28;20647;-81
2021/05/19 01:23:30;;;;;;;0.67;0.40;;;;;;;9.42;80.01;99010.34;4975131;28;20238;-79
2021/05/19 01:25:58;;;;;;;1.43;0.40;;;;;;;9.49;80.29;99024.44;4968957;28;20536;-79
2021/05/19 01:28:25;;;;;;;2.00;0.50;;;;;;;9.38;79.98;99006.50;4951028;28;20258;-78
2021/05/19 01:30:53;;;;;;;0.40;0.40;;;;;;;9.48;79.88;99023.63;4968022;28;20246;-79
2021/05/19 01:33:20;;;;;;;0.40;0.40;;;;;;;9.41;80.00;99022.09;4975124;28;20246;-79
2021/05/19 01:35:47;;;;;;;0.80;0.37;;;;;;;9.48;79.57;99026.28;4986709;28;20222;-79
2021/05/19 01:38:15;;;;;;;1.77;0.50;;;;;;;9.57;78.91;99034.81;4993181;28;20219;-78
2021/05/19 01:40:43;;;;;;;0.60;0.50;;;;;;;9.50;78.76;99020.72;4982215;28;20227;-79
2021/05/19 01:43:10;;;;;;;0.50;0.50;;;;;;;9.62;78.64;99041.09;4972131;28;20233;-79
2021/05/19 01:46:00;;;;;;;0.57;0.40;;;;;;;9.64;78.06;99028.34;4974319;28;20326;-80
2021/05/19 01:48:29;;;;;;;0.47;0.30;;;;;;;9.76;78.03;99032.88;4978573;28;20233;-79
2021/05/19 01:50:56;;;;;;;0.40;0.40;;;;;;;9.85;76.70;99037.69;4965823;28;20231;-79
2021/05/19 01:53:27;;;;;;;1.53;0.57;;;;;;;9.96;76.40;99046.78;4989109;28;20227;-79
2021/05/19 01:55:55;;;;;;;2.57;0.77;;;;;;;10.02;75.91;99052.06;5002635;28;20372;-79
2021/05/19 01:58:22;;;;;;;0.80;0.50;;;;;;;9.93;76.10;99037.38;4979979;28;20315;-79
2021/05/19 02:00:51;;;;;;;1.80;0.60;;;;;;;9.95;76.36;99045.97;4981856;28;20265;-81
2021/05/19 02:03:27;;;;;;;2.30;0.73;;;;;;;10.09;75.64;99047.41;4994352;28;20223;-80
2021/05/19 02:06:20;;;;;;;0.40;0.40;;;;;;;10.15;75.07;99040.31;4969816;28;20650;-79
2021/05/19 02:08:52;;;;;;;0.90;0.60;;;;;;;10.45;73.83;99050.97;4989771;28;20222;-79
2021/05/19 02:11:19;;;;;;;1.20;0.60;;;;;;;10.51;73.13;99040.13;5000600;28;20254;-80
2021/05/19 02:13:46;;;;;;;1.67;0.83;;;;;;;10.64;72.31;99032.91;4977571;28;20223;-79
2021/05/19 02:16:13;;;;;;;1.57;0.57;;;;;;;10.67;72.39;99035.13;4980096;28;20844;-80
2021/05/19 02:18:44;;;;;;;0.57;0.50;;;;;;;10.80;71.97;99045.59;4973500;28;20225;-81
2021/05/19 02:21:13;;;;;;;0.57;0.50;;;;;;;10.94;70.94;99038.91;4985809;28;20321;-79
2021/05/19 02:23:48;;;;;;;0.83;0.60;;;;;;;11.13;69.86;99034.22;4995192;28;20330;-79
2021/05/19 02:26:15;;;;;;;0.83;0.50;;;;;;;11.38;69.16;99040.88;4981482;28;20601;-80
2021/05/19 02:28:42;;;;;;;1.30;0.50;;;;;;;11.40;68.93;99037.97;4954785;28;20229;-79
2021/05/19 02:31:12;;;;;;;1.07;0.50;;;;;;;11.48;68.59;99048.31;4986598;28;20237;-79
2021/05/19 02:33:39;;;;;;;0.60;0.60;;;;;;;11.48;68.12;99027.66;4990428;28;20272;-79
2021/05/19 02:36:07;;;;;;;0.60;0.60;;;;;;;11.46;68.65;99037.84;4991338;28;20285;-79
2021/05/19 02:38:35;;;;;;;1.00;0.60;;;;;;;11.56;68.44;99039.91;4989728;28;20222;-81
2021/05/19 02:41:04;;;;;;;0.80;0.53;;;;;;;11.43;68.55;99035.63;4970658;28;20246;-79
2021/05/19 02:43:37;;;;;;;1.07;0.60;;;;;;;11.46;68.64;99034.34;4988380;28;20314;-79
2021/05/19 02:46:04;;;;;;;0.70;0.43;;;;;;;11.45;68.86;99040.75;5005391;28;20228;-79
2021/05/19 02:48:31;;;;;;;1.87;0.50;;;;;;;11.38;68.48;99011.38;5006260;28;20226;-78
2021/05/19 02:51:00;;;;;;;0.97;0.50;;;;;;;11.44;68.30;99015.78;5007194;28;20231;-78
2021/05/19 02:53:28;;;;;;;1.57;0.60;;;;;;;11.56;67.72;99025.69;5006660;28;20238;-79
2021/05/19 02:55:55;;;;;;;0.43;0.40;;;;;;;11.54;67.83;99022.41;4987132;28;20281;-79
2021/05/19 02:58:22;;;;;;;2.07;0.47;;;;;;;11.51;67.74;99031.75;4987489;28;20647;-80
2021/05/19 03:00:49;;;;;;;0.80;0.50;;;;;;;11.56;67.63;99029.16;5021460;28;20226;-79
2021/05/19 03:03:16;;;;;;;0.70;0.40;;;;;;;11.44;68.25;99033.75;4990227;28;20280;-78
2021/05/19 03:05:44;;;;;;;1.23;0.60;;;;;;;11.51;67.59;99026.38;4992216;28;20243;-79
2021/05/19 03:08:11;;;;;;;1.57;0.60;;;;;;;11.51;67.56;99031.75;4970681;28;20232;-79
2021/05/19 03:10:37;;;;;;;0.60;0.60;;;;;;;11.70;67.03;99027.00;5001495;28;20226;-79
2021/05/19 03:13:05;;;;;;;2.53;0.67;;;;;;;11.68;66.94;99037.16;5005625;28;20223;-79
2021/05/19 03:15:35;;;;;;;3.30;0.87;;;;;;;11.71;66.84;99036.69;4992696;28;20510;-80
2021/05/19 03:18:02;;;;;;;4.93;0.60;;;;;;;11.62;66.43;99019.34;4970415;28;20297;-79
2021/05/19 03:20:29;;;;;;;0.80;0.57;;;;;;;11.62;66.61;99038.13;5016880;28;20237;-79
2021/05/19 03:22:57;;;;;;;0.70;0.70;;;;;;;11.76;65.47;99031.41;5022983;28;20638;-79
2021/05/19 03:25:24;;;;;;;0.80;0.70;;;;;;;11.69;65.90;99036.09;4988671;28;20233;-79
2021/05/19 03:27:52;;;;;;;1.03;0.60;;;;;;;11.70;66.24;99035.06;5005783;28;20233;-80
2021/05/19 03:30:19;;;;;;;1.17;0.60;;;;;;;11.69;66.09;99034.25;4973034;28;20276;-79
2021/05/19 03:32:46;;;;;;;1.47;0.70;;;;;;;11.69;65.98;99025.38;4988021;28;20306;-78
2021/05/19 03:35:13;;;;;;;0.77;0.60;;;;;;;11.74;65.59;99023.63;4989881;28;20634;-79
2021/05/19 03:37:40;;;;;;;0.73;0.67;;;;;;;11.75;65.86;99043.22;4987043;28;20226;-80
2021/05/19 03:40:11;;;;;;;0.60;0.60;;;;;;;11.79;65.82;99037.13;4999680;28;20227;-80
2021/05/19 03:42:38;;;;;;;0.70;0.60;;;;;;;11.72;65.78;99041.81;4970377;28;20273;-79
2021/05/19 03:45:06;;;;;;;1.50;0.60;;;;;;;11.86;65.17;99042.34;4974254;28;20638;-80
2021/05/19 03:47:33;;;;;;;1.07;0.70;;;;;;;11.88;65.37;99056.34;5004922;28;20228;-81
2021/05/19 03:50:00;;;;;;;1.47;0.70;;;;;;;11.91;64.15;99035.19;4983806;28;20226;-79
2021/05/19 03:52:32;;;;;;;1.50;1.00;;;;;;;11.98;64.07;99051.16;4986847;28;20232;-79
2021/05/19 03:54:59;;;;;;;1.53;0.60;;;;;;;12.08;63.93;99037.91;4985675;28;20227;-79
2021/05/19 03:57:27;;;;;;;1.00;0.80;;;;;;;12.07;63.78;99038.97;4969782;28;20581;-80
2021/05/19 03:59:54;;;;;;;0.90;0.70;;;;;;;11.97;64.02;99043.34;4971343;28;20235;-78
2021/05/19 04:02:22;;;;;;;1.20;0.70;;;;;;;12.11;64.04;99052.72;5003803;28;20239;-80
2021/05/19 04:04:51;;;;;;;1.20;0.80;;;;;;;11.98;64.29;99047.66;5020990;28;20266;-79
2021/05/19 04:07:18;;;;;;;0.70;0.70;;;;;;;12.03;64.11;99047.75;4989010;28;20230;-79
2021/05/19 04:09:45;;;;;;;0.60;0.60;;;;;;;12.13;63.43;99042.53;5005823;28;20568;-80
2021/05/19 04:12:11;;;;;;;0.90;0.80;;;;;;;12.24;63.37;99058.56;4969357;28;20228;-79
2021/05/19 04:14:38;;;;;;;2.00;1.07;;;;;;;12.26;63.50;99051.09;4970370;28;20223;-79
2021/05/19 04:17:06;;;;;;;0.90;0.80;;;;;;;12.38;63.42;99075.16;5002989;28;20634;-79
2021/05/19 04:19:33;;;;;;;1.57;0.80;;;;;;;12.21;64.02;99063.63;5004952;28;20231;-78
2021/05/19 04:22:02;;;;;;;1.50;0.80;;;;;;;12.16;64.23;99063.53;5022934;28;20284;-79
2021/05/19 04:24:29;;;;;;;1.27;0.90;;;;;;;12.27;64.13;99086.81;5003865;28;20226;-80
2021/05/19 04:26:56;;;;;;;1.20;0.70;;;;;;;12.35;63.51;99081.03;4973651;28;20226;-78
2021/05/19 04:29:23;;;;;;;1.53;0.93;;;;;;;12.42;63.35;99068.25;5002511;28;20231;-79
2021/05/19 04:31:50;;;;;;;1.57;0.80;;;;;;;12.55;63.13;99073.28;4995863;28;20313;-79
2021/05/19 04:34:18;;;;;;;1.13;0.80;;;;;;;12.62;62.69;99084.69;5003426;28;20238;-79
2021/05/19 04:36:45;;;;;;;1.37;0.80;;;;;;;12.80;61.80;99091.66;4975341;28;20230;-79
2021/05/19 04:39:12;;;;;;;1.20;0.80;;;;;;;12.94;61.59;99092.13;4986138;28;20243;-78
2021/05/19 04:41:38;;;;;;;1.83;0.90;;;;;;;12.98;61.24;99086.00;4994294;28;20231;-79
2021/05/19 04:44:05;;;;;;;2.37;1.10;;;;;;;13.12;60.99;99087.31;5003873;28;20654;-78
2021/05/19 04:46:32;;;;;;;2.43;1.00;;;;;;;13.10;61.54;99084.03;4978860;28;20274;-79
2021/05/19 04:48:59;;;;;;;1.90;0.80;;;;;;;13.21;61.06;99085.81;4968506;28;20224;-78
2021/05/19 04:51:26;;;;;;;1.23;0.70;;;;;;;13.23;60.32;99066.75;4993253;28;20226;-79
2021/05/19 04:53:54;;;;;;;3.20;0.77;;;;;;;13.34;60.25;99092.72;4989187;28;20227;-78
2021/05/19 04:56:21;;;;;;;2.17;0.60;;;;;;;13.16;60.95;99090.31;4982618;28;20246;-79
2021/05/19 04:58:47;;;;;;;2.07;0.83;;;;;;;13.13;60.50;99080.88;4985436;28;20682;-81
2021/05/19 05:01:14;;;;;;;1.73;0.60;;;;;;;13.23;60.18;99085.56;4988211;28;20228;-79
2021/05/19 05:03:41;;;;;;;1.17;0.63;;;;;;;13.18;60.35;99085.50;4968954;28;20554;-79
2021/05/19 05:06:08;;;;;;;2.23;0.83;;;;;;;13.16;60.34;99079.53;4984199;28;20235;-78
2021/05/19 05:08:35;;;;;;;1.40;0.87;;;;;;;13.32;59.42;99089.44;4967973;28;20578;-79
2021/05/19 05:11:01;;;;;;;1.60;0.77;;;;;;;13.35;59.70;99086.25;4968250;28;20231;-79
2021/05/19 05:13:28;;;;;;;1.80;0.80;;;;;;;13.29;59.88;99086.44;4985736;28;20319;-79
2021/05/19 05:15:55;;;;;;;0.70;0.70;;;;;;;13.28;59.29;99082.13;4985996;28;20224;-79
2021/05/19 05:18:24;;;;;;;0.60;0.60;;;;;;;13.21;59.56;99088.50;5001303;28;20264;-79
2021/05/19 05:20:52;;;;;;;0.70;0.60;;;;;;;13.30;59.14;99078.13;4983922;28;20227;-79
2021/05/19 05:23:22;;;;;;;1.03;0.70;;;;;;;13.39;58.84;99081.22;5021183;28;20235;-81
2021/05/19 05:25:49;;;;;;;1.10;0.70;;;;;;;13.30;58.99;99080.81;4989449;28;20246;-79
2021/05/19 05:28:18;;;;;;;1.50;0.53;;;;;;;13.26;59.15;99074.31;4988496;28;20242;-79
2021/05/19 05:30:45;;;;;;;1.00;0.60;;;;;;;13.57;58.86;99088.94;4985913;28;20278;-80
2021/05/19 05:33:12;;;;;;;1.20;0.80;;;;;;;13.52;58.47;99060.09;5002413;28;20222;-79
2021/05/19 05:35:39;;;;;;;1.47;0.70;;;;;;;13.79;58.02;99086.22;5020975;28;20233;-79
2021/05/19 05:38:07;;;;;;;1.97;0.70;;;;;;;13.91;57.35;99085.00;4973074;28;20219;-79
2021/05/19 05:40:35;;;;;;;1.57;0.70;;;;;;;14.05;56.85;99077.31;4985785;28;20227;-80
2021/05/19 05:43:03;;;;;;;1.00;0.60;;;;;;;14.10;56.70;99090.84;4980841;28;20249;-79
2021/05/19 05:45:30;;;;;;;1.70;0.90;;;;;;;14.01;56.85;99086.97;5004105;28;20238;-79
2021/05/19 05:47:58;;;;;;;1.17;0.60;;;;;;;14.01;57.37;99084.28;5006010;28;20293;-79
2021/05/19 05:50:25;;;;;;;0.90;0.57;;;;;;;14.11;56.35;99093.28;4989593;28;20254;-77
2021/05/19 05:52:53;;;;;;;0.93;0.53;;;;;;;14.14;56.23;99075.00;4985854;28;20525;-79
2021/05/19 05:55:21;;;;;;;1.40;0.57;;;;;;;14.06;56.34;99085.16;5004187;28;20219;-79
2021/05/19 05:57:50;;;;;;;2.77;0.60;;;;;;;14.06;55.88;99069.00;5010486;28;20234;-79
2021/05/19 06:00:18;;;;;;;1.77;0.60;;;;;;;14.28;55.87;99089.63;4984043;28;20205;-79
2021/05/19 06:02:45;;;;;;;2.47;0.60;;;;;;;14.34;55.59;99083.22;4992323;28;20227;-78
2021/05/19 06:05:13;;;;;;;1.27;0.60;;;;;;;14.38;56.17;99087.06;4985848;28;20691;-79
2021/05/19 06:07:40;;;;;;;0.60;0.50;;;;;;;14.59;55.33;99088.06;4978093;28;20227;-79
2021/05/19 06:10:08;;;;;;;1.80;0.60;;;;;;;14.60;54.90;99079.72;4963586;28;20236;-79
2021/05/19 06:12:35;;;;;;;1.13;0.67;;;;;;;14.61;54.23;99077.81;4983438;28;20642;-82
2021/05/19 06:15:03;;;;;;;1.37;0.70;;;;;;;14.93;53.64;99089.38;5001400;28;20293;-79
2021/05/19 06:17:30;;;;;;;3.43;0.90;;;;;;;14.81;53.86;99083.34;4984788;28;20234;-77
2021/05/19 06:19:58;;;;;;;0.77;0.53;;;;;;;14.97;53.72;99082.38;5002724;28;20240;-80
2021/05/19 06:22:24;;;;;;;1.50;0.80;;;;;;;15.18;53.23;99089.50;4985854;28;20249;-79
2021/05/19 06:24:51;;;;;;;1.60;0.60;;;;;;;15.26;52.93;99094.38;5004284;28;20227;-81
2021/05/19 06:27:21;;;;;;;0.90;0.60;;;;;;;15.28;51.91;99086.03;4998275;28;20250;-80
2021/05/19 06:29:48;;;;;;;0.80;0.70;;;;;;;15.33;52.07;99088.75;4966598;28;20234;-79
2021/05/19 06:32:16;;;;;;;1.00;0.60;;;;;;;15.44;52.40;99087.75;4957638;28;20301;-80
2021/05/19 06:34:46;;;;;;;1.73;0.80;;;;;;;15.40;52.68;99090.13;5002766;28;20238;-80
2021/05/19 06:37:29;;;;;;;0.93;0.57;;;;;;;15.29;52.40;99090.34;4969900;28;20229;-83
2021/05/19 06:39:57;;;;;;;0.73;0.70;;;;;;;15.59;51.73;99097.78;4978745;28;20229;-82
2021/05/19 06:42:24;;;;;;;1.37;0.60;;;;;;;15.80;51.56;99099.50;4978544;28;20327;-82
2021/05/19 06:44:51;;;;;;;1.13;0.60;;;;;;;16.05;50.76;99104.94;4997777;28;20311;-83
2021/05/19 06:47:18;;;;;;;0.50;0.50;;;;;;;16.02;49.61;99099.25;4981641;28;20643;-83
2021/05/19 06:49:44;;;;;;;1.23;0.73;;;;;;;15.97;50.09;99097.34;4972343;28;20304;-82
2021/05/19 06:52:12;;;;;;;0.80;0.60;;;;;;;16.26;49.52;99093.09;4986621;28;20631;-82
2021/05/19 06:54:38;;;;;;;1.70;0.60;;;;;;;16.25;49.64;99096.03;4996599;28;20572;-85
2021/05/19 06:57:05;;;;;;;0.90;0.60;;;;;;;16.30;49.48;99101.47;4978418;28;20216;-85
2021/05/19 06:59:32;;;;;;;1.33;0.53;;;;;;;16.38;49.36;99092.81;5010610;28;20576;-85
2021/05/19 07:01:58;;;;;;;0.80;0.60;;;;;;;16.40;48.41;99085.25;4981075;28;20233;-82
2021/05/19 07:04:25;;;;;;;1.53;0.63;;;;;;;16.33;48.81;99098.19;4982931;28;20228;-85
2021/05/19 07:06:52;;;;;;;1.47;0.70;;;;;;;16.44;49.00;99094.44;4994675;28;20239;-86
2021/05/19 07:09:20;;;;;;;1.20;0.60;;;;;;;16.70;48.86;99087.94;4990654;28;20237;-83
2021/05/19 07:11:47;;;;;;;0.93;0.73;;;;;;;16.89;48.01;99088.19;4981306;28;20233;-84
2021/05/19 07:14:15;;;;;;;1.03;0.70;;;;;;;16.96;47.83;99085.22;4958284;28;20282;-85
2021/05/19 07:16:53;;;;;;;0.73;0.60;;;;;;;17.03;47.23;99097.34;4974887;28;20568;-85
2021/05/19 07:19:22;;;;;;;2.00;0.90;;;;;;;17.00;47.84;99081.69;4999560;28;20625;-83
2021/05/19 07:21:50;;;;;;;2.00;0.70;;;;;;;17.24;47.38;99086.50;4984769;28;20240;-81
2021/05/19 07:24:17;;;;;;;1.70;0.70;;;;;;;17.36;47.02;99087.78;4995041;28;20229;-82
2021/05/19 07:26:46;;;;;;;2.00;0.80;;;;;;;17.56;46.07;99082.28;5000828;28;20233;-81
2021/05/19 07:29:14;;;;;;;1.13;0.60;;;;;;;17.55;46.45;99091.50;4992003;28;20249;-85
2021/05/19 07:31:41;;;;;;;0.90;0.60;;;;;;;17.65;45.91;99084.44;4981393;28;20227;-82
2021/05/19 07:34:08;;;;;;;1.20;0.70;;;;;;;17.88;45.68;99078.34;4972324;28;20250;-85
2021/05/19 07:36:35;;;;;;;0.73;0.67;;;;;;;17.54;44.96;99075.56;5000819;28;20229;-83
2021/05/19 07:39:04;;;;;;;0.67;0.53;;;;;;;17.73;45.09;99075.75;4994604;28;20318;-83
2021/05/19 07:41:31;;;;;;;1.00;0.80;;;;;;;17.91;44.04;99069.69;4965162;28;20235;-85
2021/05/19 07:43:57;;;;;;;2.07;0.77;;;;;;;17.78;44.42;99079.22;4970139;28;20245;-86
2021/05/19 07:46:24;;;;;;;2.63;0.63;;;;;;;17.76;44.92;99073.28;4983993;28;20238;-83
2021/05/19 07:48:50;;;;;;;1.10;0.87;;;;;;;17.35;45.85;99069.94;4997260;28;20535;-80
2021/05/19 07:51:16;;;;;;;1.80;0.90;;;;;;;17.52;45.55;99075.00;4980931;28;20305;-82
2021/05/19 07:53:42;;;;;;;1.77;0.90;;;;;;;17.57;44.81;99074.97;4965824;28;20228;-80
2021/05/19 07:56:15;;;;;;;2.40;0.80;;;;;;;17.33;45.56;99079.41;4999820;28;20223;-82
2021/05/19 07:58:55;;;;;;;1.23;0.80;;;;;;;17.05;45.69;99070.03;5000484;28;20231;-79
2021/05/19 08:01:31;;;;;;;1.00;0.93;;;;;;;17.27;45.65;99075.09;4997856;28;20270;-83
2021/05/19 08:03:57;;;;;;;1.37;1.03;;;;;;;17.63;45.36;99071.19;4983978;28;20276;-83
2021/05/19 08:06:22;;;;;;;2.17;0.93;;;;;;;17.77;44.65;99083.03;4983058;28;20535;-83
2021/05/19 08:08:48;;;;;;;1.90;0.70;;;;;;;17.71;45.28;99076.03;4983424;28;20259;-80
2021/05/19 08:11:17;;;;;;;2.80;0.90;;;;;;;17.65;44.98;99060.06;4964060;28;20272;-81
2021/05/19 08:13:46;;;;;;;1.50;0.90;;;;;;;18.08;43.98;99078.22;4964835;28;20230;-82
2021/05/19 08:16:11;;;;;;;1.67;0.77;;;;;;;18.15;44.24;99086.84;4982574;28;20304;-80
2021/05/19 08:18:37;;;;;;;1.60;0.70;;;;;;;17.98;44.00;99072.88;4983322;28;20511;-81
2021/05/19 08:21:04;;;;;;;1.83;0.90;;;;;;;18.03;43.81;99075.56;4960749;28;20228;-81
2021/05/19 08:23:31;;;;;;;0.73;0.73;;;;;;;17.79;44.74;99088.16;4976934;28;20232;-79
2021/05/19 08:26:03;;;;;;;2.63;0.70;;;;;;;17.93;44.72;99089.97;5008577;28;20257;-80
2021/05/19 08:28:34;;;;;;;2.63;0.93;;;;;;;18.19;44.60;99079.78;4983781;28;20227;-80
2021/05/19 08:31:02;;;;;;;2.53;0.90;;;;;;;18.36;44.24;99079.38;4966976;28;20239;-80
2021/05/19 08:33:45;;;;;;;0.83;0.80;;;;;;;18.34;43.96;99082.38;4968432;28;20235;-82
2021/05/19 08:36:13;;;;;;;1.53;0.80;;;;;;;18.47;43.83;99087.16;4979749;28;20575;-80
2021/05/19 08:38:39;;;;;;;2.27;0.93;;;;;;;18.33;44.66;99072.63;4983452;28;20227;-79
2021/05/19 08:41:07;;;;;;;2.33;1.00;;;;;;;18.13;45.19;99083.63;4984650;28;20231;-79
2021/05/19 08:43:34;;;;;;;2.43;1.07;;;;;;;17.98;44.95;99073.69;4963901;28;20637;-79
2021/05/19 08:46:08;;;;;;;3.37;1.00;;;;;;;18.34;43.90;99078.84;4992980;28;20237;-80
2021/05/19 08:48:35;;;;;;;2.00;0.90;;;;;;;18.45;43.94;99085.81;5016706;28;20230;-80
2021/05/19 08:51:03;;;;;;;1.67;0.90;;;;;;;18.26;44.44;99074.03;4983387;28;20534;-78
2021/05/19 08:53:31;;;;;;;1.20;1.10;;;;;;;18.22;45.01;99072.97;4983160;28;20235;-79
2021/05/19 08:55:59;;;;;;;1.33;1.10;;;;;;;18.27;45.40;99083.78;4971256;28;20251;-81
2021/05/19 08:58:26;;;;;;;2.33;1.10;;;;;;;17.98;45.08;99075.59;4963055;28;20265;-78
2021/05/19 09:00:53;;;;;;;2.07;1.17;;;;;;;18.15;44.73;99070.59;4989675;28;20222;-79
2021/05/19 09:03:20;;;;;;;1.90;1.10;;;;;;;18.08;44.95;99070.09;4999235;28;20661;-80
2021/05/19 09:05:52;;;;;;;1.90;0.97;;;;;;;18.75;44.66;99076.63;4990081;28;20240;-81
2021/05/19 09:08:20;;;;;;;2.07;1.20;;;;;;;18.03;44.70;99070.13;4963143;28;20224;-79
2021/05/19 09:11:03;;;;;;;1.67;1.03;;;;;;;18.56;44.77;99081.16;4971170;28;20306;-83
2021/05/19 09:13:36;;;;;;;2.30;1.30;;;;;;;18.50;44.86;99072.22;4999264;28;20257;-81
2021/05/19 09:16:06;;;;;;;3.30;1.53;;;;;;;18.04;45.02;99071.75;4972885;28;20224;-80
2021/05/19 09:18:56;;;;;;;2.00;1.47;;;;;;;17.62;45.64;99079.59;4979087;28;20226;-80
2021/05/19 09:21:39;;;;;;;1.87;1.20;;;;;;;18.16;45.58;99080.34;4990639;28;20231;-80
2021/05/19 09:24:10;;;;;;;2.70;1.37;;;;;;;18.03;45.82;99078.25;4982126;28;20256;-83
2021/05/19 09:26:58;;;;;;;2.90;1.20;;;;;;;17.96;46.50;99072.38;4969665;28;20227;-81
2021/05/19 09:29:26;;;;;;;1.20;1.10;;;;;;;18.27;45.13;99079.19;4979234;28;20234;-81
2021/05/19 09:31:57;;;;;;;2.80;1.40;;;;;;;18.39;45.02;99068.78;4954551;28;20224;-82
2021/05/19 09:34:29;;;;;;;2.47;1.40;;;;;;;18.33;45.35;99069.94;4976531;28;20251;-84
2021/05/19 09:37:30;;;;;;;1.93;1.40;;;;;;;18.22;45.19;99075.69;5003452;28;20276;-78
2021/05/19 09:39:59;;;;;;;1.87;1.30;;;;;;;18.59;45.03;99072.44;4931567;28;20238;-79
2021/05/19 09:42:36;;;;;;;1.27;1.20;;;;;;;18.63;44.52;99076.19;4980628;28;20249;-79
2021/05/19 09:45:29;;;;;;;3.97;1.40;;;;;;;18.96;44.19;99083.47;4978616;28;20619;-79
2021/05/19 09:48:00;;;;;;;1.70;1.40;;;;;;;18.92;43.14;99071.56;4976013;28;20671;-79
2021/05/19 09:50:33;;;;;;;1.27;1.13;;;;;;;18.97;43.08;99071.53;4993915;28;20286;-81
2021/05/19 09:53:08;;;;;;;1.60;1.20;;;;;;;19.06;44.00;99077.13;5015184;28;20223;-78
2021/05/19 09:55:37;;;;;;;3.20;1.47;;;;;;;19.26;42.64;99079.63;4981530;28;20234;-79
2021/05/19 09:58:04;;;;;;;3.67;1.50;;;;;;;19.41;42.87;99062.34;4956307;28;20230;-83
2021/05/19 10:00:32;;;;;;;1.27;1.17;;;;;;;19.67;42.04;99061.75;4994062;28;20231;-84
2021/05/19 10:03:01;;;;;;;2.50;1.53;;;;;;;19.20;41.95;99067.19;4957194;28;20642;-82
2021/05/19 10:05:41;;;;;;;1.50;1.20;;;;;;;19.26;42.92;99066.03;4973261;28;20235;-78
2021/05/19 10:08:07;;;;;;;2.63;1.37;;;;;;;18.97;43.34;99073.44;4943309;28;20228;-83
2021/05/19 10:10:34;;;;;;;2.33;1.20;;;;;;;19.09;42.36;99060.25;4942498;28;20643;-82
2021/05/19 10:13:03;;;;;;;1.80;1.10;;;;;;;18.77;43.04;99050.00;4960214;28;20228;-79
2021/05/19 10:15:31;;;;;;;2.73;1.30;;;;;;;19.02;42.61;99052.47;4976487;28;20235;-83
2021/05/19 10:18:10;;;;;;;1.70;0.97;;;;;;;19.30;42.14;99059.75;4961124;28;20654;-78
2021/05/19 10:20:40;;;;;;;2.27;1.20;;;;;;;19.57;41.97;99052.91;4958097;28;20282;-81
2021/05/19 10:23:09;;;;;;;1.47;1.23;;;;;;;19.50;42.19;99060.63;4965347;28;20284;-81
2021/05/19 10:25:44;;;;;;;2.27;1.40;;;;;;;19.79;41.21;99058.56;4958793;28;20304;-85
2021/05/19 10:28:11;;;;;;;1.70;1.40;;;;;;;19.55;42.24;99050.47;4975558;28;20226;-83
2021/05/19 10:30:46;;;;;;;1.40;1.30;;;;;;;19.46;41.83;99059.56;4961352;28;20232;-81
2021/05/19 10:33:29;;;;;;;1.87;1.40;;;;;;;19.61;41.93;99056.66;4945211;28;20228;-80
2021/05/19 10:36:24;;;;;;;2.87;1.40;;;;;;;20.04;41.41;99060.13;4958547;28;20228;-84
2021/05/19 10:39:06;;;;;;;2.27;1.40;;;;;;;19.78;40.19;99046.13;4974973;28;20636;-85
2021/05/19 10:41:36;;;;;;;3.10;1.40;;;;;;;19.89;40.36;99053.00;4960692;28;20533;-85
2021/05/19 10:44:11;;;;;;;1.70;1.33;;;;;;;19.90;39.88;99051.91;4977464;28;20631;-81
2021/05/19 10:47:07;;;;;;;1.67;1.40;;;;;;;19.78;40.29;99040.69;4959596;28;20249;-81
2021/05/19 10:49:55;;;;;;;1.67;1.20;;;;;;;20.10;40.54;99032.56;4942934;28;20220;-83
2021/05/19 10:52:34;;;;;;;2.37;1.33;;;;;;;20.47;39.37;99034.44;4980756;28;20544;-83
2021/05/19 10:57:52;;;;;;;1.63;1.47;;;;;;;20.17;40.04;99032.19;4981208;28;20231;-82
2021/05/19 11:00:25;;;;;;;1.50;1.40;;;;;;;20.31;39.36;99024.09;4979249;28;20224;-84
2021/05/19 11:05:34;;;;;;;2.33;1.10;;;;;;;20.47;39.26;99014.56;4990746;28;20244;-84
2021/05/19 11:08:11;;;;;;;1.47;1.20;;;;;;;20.32;39.45;99021.09;4993913;28;20234;-85
2021/05/19 11:10:47;;;;;;;2.63;1.20;;;;;;;19.98;39.11;99010.44;5000416;28;20250;-81
2021/05/19 11:13:16;;;;;;;1.23;1.10;;;;;;;19.99;40.22;99014.78;4972183;28;20235;-83
2021/05/19 11:21:15;;;;;;;1.10;1.10;;;;;;;19.61;40.45;99016.72;5018037;28;20643;-83
2021/05/19 11:24:10;;;;;;;3.93;1.20;;;;;;;19.44;40.53;99026.47;5003354;28;20295;-84
2021/05/19 11:26:42;;;;;;;1.13;1.00;;;;;;;19.51;40.34;98999.72;4981159;28;20228;-81
2021/05/19 11:29:11;;;;;;;1.37;1.10;;;;;;;19.19;40.96;99000.41;4972921;28;20519;-82
2021/05/19 11:31:49;;;;;;;1.20;1.00;;;;;;;18.92;41.61;99015.38;4983956;28;20223;-83
2021/05/19 11:34:22;;;;;;;2.03;0.97;;;;;;;18.92;42.13;99009.97;4971936;28;20262;-85
2021/05/19 11:36:56;;;;;;;1.30;1.20;;;;;;;19.11;41.34;98999.16;4969492;28;20233;-82
2021/05/19 11:39:35;;;;;;;2.03;1.10;;;;;;;19.24;40.73;99013.91;4977720;28;20322;-82
2021/05/19 11:42:33;;;;;;;2.63;1.20;;;;;;;18.86;41.87;99000.25;4953426;28;20275;-82
2021/05/19 11:45:05;;;;;;;1.40;1.30;;;;;;;19.24;41.91;99008.50;4984076;28;20535;-83
2021/05/19 11:47:31;;;;;;;1.83;1.10;;;;;;;19.00;41.65;99011.22;4982584;28;20537;-84
2021/05/19 11:50:15;;;;;;;1.40;1.30;;;;;;;19.14;41.90;99017.56;4997771;28;20692;-82
2021/05/19 11:52:59;;;;;;;1.60;1.50;;;;;;;19.18;41.30;99007.72;4982311;28;20246;-84
2021/05/19 11:55:35;;;;;;;2.20;1.17;;;;;;;19.45;41.69;99011.78;5017770;28;20227;-83
2021/05/19 11:58:05;;;;;;;1.37;1.23;;;;;;;19.44;41.56;99000.13;4987373;28;20223;-83
2021/05/19 12:00:38;;;;;;;1.40;1.30;;;;;;;18.96;41.27;99004.75;4979905;28;20223;-83